Time;durP1;ratioP1;P1;durP2;ratioP2;P2;SDS_P1;SDS_P2;PMS_P1;PMS_P2;Temp;Humidity;BMP_temperature;BMP_pressure;BME280_temperature;BME280_humidity;BME280_pressure;Samples;Min_cycle;Max_cycle;Signal;HPM_P1;HPM_P2
2022/01/03 00:00:25;;;;;;;0.47;0.47;;;;;;;8.37;81.06;101179.41;5041325;28;20444;-76
2022/01/03 00:02:53;;;;;;;0.40;0.40;;;;;;;8.37;81.34;101192.47;5020285;28;20036;-73
2022/01/03 00:05:19;;;;;;;0.60;0.60;;;;;;;8.39;80.74;101185.59;5040384;28;20026;-76
2022/01/03 00:07:45;;;;;;;0.40;0.40;;;;;;;8.35;80.75;101184.56;5042116;28;20044;-73
2022/01/03 00:10:12;;;;;;;0.50;0.50;;;;;;;8.33;80.44;101187.94;5043313;28;20385;-75
2022/01/03 00:12:38;;;;;;;0.50;0.50;;;;;;;8.34;80.74;101203.66;5040213;28;20129;-75
2022/01/03 00:15:09;;;;;;;0.50;0.50;;;;;;;8.36;80.36;101206.34;5042173;28;20167;-76
2022/01/03 00:17:40;;;;;;;0.60;0.60;;;;;;;8.41;80.28;101186.53;5039717;28;20028;-80
2022/01/03 00:20:07;;;;;;;0.50;0.50;;;;;;;8.37;80.44;101192.47;5045117;28;20087;-82
2022/01/03 00:22:57;;;;;;;0.50;0.50;;;;;;;8.37;80.13;101188.16;5044282;28;20028;-77
2022/01/03 00:25:25;;;;;;;0.50;0.50;;;;;;;8.33;80.63;101191.44;5037105;28;20116;-75
2022/01/03 00:28:26;;;;;;;0.70;0.70;;;;;;;8.31;80.37;101202.63;5016679;28;20066;-74
2022/01/03 00:30:54;;;;;;;0.40;0.40;;;;;;;8.29;80.69;101201.69;5017193;28;20025;-75
2022/01/03 00:33:24;;;;;;;0.43;0.43;;;;;;;8.27;80.83;101196.38;5020178;28;20038;-75
2022/01/03 00:36:00;;;;;;;0.43;0.43;;;;;;;8.31;80.49;101207.84;5019452;28;20022;-76
2022/01/03 00:38:34;;;;;;;0.50;0.50;;;;;;;8.28;80.36;101216.44;5019348;28;20033;-74
2022/01/03 00:41:00;;;;;;;0.50;0.50;;;;;;;8.27;80.31;101225.09;5019319;28;20044;-74
2022/01/03 00:43:27;;;;;;;0.50;0.50;;;;;;;8.25;80.63;101229.34;5018210;28;20112;-74
2022/01/03 00:45:53;;;;;;;0.60;0.60;;;;;;;8.25;80.19;101222.44;5017697;28;20030;-75
2022/01/03 00:48:19;;;;;;;0.60;0.60;;;;;;;8.21;80.12;101225.72;5018394;28;20312;-76
2022/01/03 00:50:46;;;;;;;0.50;0.50;;;;;;;8.21;80.21;101220.50;5018898;28;20045;-74
2022/01/03 00:53:12;;;;;;;0.50;0.50;;;;;;;8.19;80.58;101224.75;5018974;28;20477;-75
2022/01/03 00:56:04;;;;;;;0.57;0.57;;;;;;;8.16;80.00;101228.94;5036905;28;20052;-76
2022/01/03 00:58:35;;;;;;;0.50;0.50;;;;;;;8.20;80.11;101223.03;5038362;28;20140;-77
2022/01/03 01:01:01;;;;;;;0.53;0.53;;;;;;;8.16;79.98;101216.78;5037151;28;20171;-74
2022/01/03 01:03:34;;;;;;;0.60;0.60;;;;;;;8.14;80.32;101209.75;5037974;28;20390;-73
2022/01/03 01:06:03;;;;;;;0.77;0.77;;;;;;;8.11;80.40;101221.81;5038282;28;20029;-73
2022/01/03 01:08:28;;;;;;;0.50;0.50;;;;;;;8.11;80.32;101224.41;5037975;28;20120;-74
2022/01/03 01:10:55;;;;;;;0.70;0.70;;;;;;;8.11;80.28;101223.53;5037110;28;20447;-74
2022/01/03 01:13:21;;;;;;;0.60;0.60;;;;;;;8.11;80.01;101220.94;5020653;28;20176;-75
2022/01/03 01:15:47;;;;;;;0.50;0.50;;;;;;;8.16;80.36;101215.91;5036819;28;20053;-72
2022/01/03 01:18:12;;;;;;;0.53;0.53;;;;;;;8.16;80.28;101213.31;5037630;28;20029;-75
2022/01/03 01:20:39;;;;;;;0.60;0.60;;;;;;;8.21;80.08;101216.97;5037995;28;20032;-75
2022/01/03 01:23:06;;;;;;;0.50;0.50;;;;;;;8.20;80.31;101230.84;5037579;28;20061;-81
2022/01/03 01:28:09;;;;;;;0.50;0.50;;;;;;;8.17;80.61;101228.13;5037001;28;20235;-73
2022/01/03 01:30:35;;;;;;;0.57;0.57;;;;;;;8.17;79.72;101228.13;5021553;28;20036;-73
2022/01/03 01:33:04;;;;;;;0.53;0.53;;;;;;;8.19;79.87;101227.38;5037342;28;20104;-76
2022/01/03 01:35:36;;;;;;;0.43;0.43;;;;;;;8.19;79.60;101234.28;5037985;28;20087;-75
2022/01/03 01:38:03;;;;;;;0.50;0.50;;;;;;;8.22;79.59;101235.31;5017406;28;20117;-71
2022/01/03 01:40:28;;;;;;;0.60;0.60;;;;;;;8.20;79.28;101231.75;5016934;28;20029;-76
2022/01/03 01:42:55;;;;;;;0.60;0.60;;;;;;;8.19;79.82;101237.81;5017943;28;20040;-74
2022/01/03 01:45:25;;;;;;;0.47;0.47;;;;;;;8.18;79.80;101228.19;5016968;28;20407;-77
2022/01/03 01:47:54;;;;;;;0.50;0.50;;;;;;;8.20;79.91;101231.75;5017568;28;20022;-78
2022/01/03 01:50:22;;;;;;;0.60;0.60;;;;;;;8.20;79.58;101226.53;5023362;28;20037;-77
2022/01/03 01:52:49;;;;;;;0.60;0.60;;;;;;;8.15;79.72;101230.66;5037345;28;20116;-70
2022/01/03 01:55:14;;;;;;;0.60;0.60;;;;;;;8.16;79.92;101219.38;5036573;28;20060;-76
2022/01/03 01:58:04;;;;;;;0.60;0.60;;;;;;;8.23;79.42;101231.00;5038000;28;20079;-78
2022/01/03 02:00:30;;;;;;;0.43;0.43;;;;;;;8.21;79.66;101237.84;5036737;28;20104;-76
2022/01/03 02:02:58;;;;;;;0.50;0.50;;;;;;;8.19;79.82;101234.28;5036708;28;20087;-79
2022/01/03 02:05:30;;;;;;;0.60;0.60;;;;;;;8.21;79.67;101245.69;5028921;28;20200;-77
2022/01/03 02:08:13;;;;;;;0.60;0.60;;;;;;;8.20;80.00;101244.81;5037563;28;20029;-81
2022/01/03 02:11:03;;;;;;;0.53;0.53;;;;;;;8.16;80.15;101242.88;5037197;28;20109;-79
2022/01/03 02:13:28;;;;;;;0.50;0.50;;;;;;;8.17;79.97;101235.94;5035428;28;20052;-75
2022/01/03 02:16:03;;;;;;;0.60;0.60;;;;;;;8.20;80.40;101242.19;5036849;28;20029;-78
2022/01/03 02:18:29;;;;;;;0.60;0.60;;;;;;;8.23;80.37;101244.94;5036776;28;20037;-71
2022/01/03 02:20:54;;;;;;;0.53;0.53;;;;;;;8.24;80.27;101245.84;5037363;28;20037;-78
2022/01/03 02:23:20;;;;;;;0.60;0.60;;;;;;;8.27;80.16;101239.88;5038269;28;20100;-73
2022/01/03 02:25:46;;;;;;;0.50;0.50;;;;;;;8.27;80.02;101239.88;5038819;28;20051;-78
2022/01/03 02:28:11;;;;;;;0.60;0.60;;;;;;;8.25;80.15;101242.41;5045352;28;20125;-81
2022/01/03 02:30:37;;;;;;;0.60;0.60;;;;;;;8.23;80.38;101252.75;5047875;28;20117;-77
2022/01/03 02:33:03;;;;;;;0.43;0.43;;;;;;;8.23;80.76;101239.72;5048490;28;20064;-74
2022/01/03 02:35:33;;;;;;;0.50;0.50;;;;;;;8.26;79.94;101231.13;5046420;28;20123;-77
2022/01/03 02:37:58;;;;;;;0.60;0.60;;;;;;;8.24;79.92;101249.31;5043046;28;20025;-77
2022/01/03 02:40:23;;;;;;;0.30;0.30;;;;;;;8.22;79.87;101250.09;5026451;28;20402;-77
2022/01/03 02:42:49;;;;;;;0.50;0.50;;;;;;;8.21;80.04;101233.53;5043041;28;20033;-77
2022/01/03 02:45:17;;;;;;;0.60;0.60;;;;;;;8.20;80.17;101242.19;5043166;28;20144;-72
2022/01/03 02:47:45;;;;;;;0.50;0.50;;;;;;;8.20;80.16;101244.81;5028227;28;20041;-80
2022/01/03 02:50:11;;;;;;;0.60;0.60;;;;;;;8.23;80.10;101237.09;5023287;28;20388;-73
2022/01/03 02:52:37;;;;;;;0.60;0.60;;;;;;;8.22;80.03;101242.28;5023306;28;20300;-71
2022/01/03 02:55:04;;;;;;;0.60;0.60;;;;;;;8.21;80.17;101248.28;5023478;28;20025;-71
2022/01/03 02:57:41;;;;;;;0.50;0.50;;;;;;;8.17;80.14;101239.47;5023341;28;20033;-73
2022/01/03 03:00:12;;;;;;;0.70;0.70;;;;;;;8.16;80.40;101244.59;5024037;28;20033;-79
2022/01/03 03:02:38;;;;;;;0.57;0.57;;;;;;;8.15;80.41;101243.69;5043417;28;20033;-74
2022/01/03 03:05:06;;;;;;;0.50;0.50;;;;;;;8.13;80.43;101239.22;5042853;28;20311;-82
2022/01/03 03:07:32;;;;;;;0.50;0.50;;;;;;;8.15;80.33;101242.81;5043193;28;20029;-76
2022/01/03 03:09:58;;;;;;;0.40;0.40;;;;;;;8.17;80.42;101229.03;5043424;28;20120;-78
2022/01/03 03:12:24;;;;;;;0.60;0.60;;;;;;;8.15;80.36;101240.22;5043100;28;20109;-75
2022/01/03 03:14:50;;;;;;;5.83;0.87;;;;;;;8.10;80.75;101240.00;5041810;28;20021;-74
2022/01/03 03:17:19;;;;;;;0.40;0.40;;;;;;;8.08;80.72;101232.09;5042883;28;20075;-76
2022/01/03 03:19:54;;;;;;;0.43;0.43;;;;;;;8.11;80.40;101241.78;5043291;28;20021;-77
2022/01/03 03:22:21;;;;;;;0.40;0.40;;;;;;;8.15;80.22;101230.66;5042951;28;20037;-77
2022/01/03 03:24:47;;;;;;;0.60;0.60;;;;;;;8.15;80.31;101243.69;5043460;28;20067;-76
2022/01/03 03:27:12;;;;;;;0.60;0.60;;;;;;;8.16;80.44;101232.44;5043070;28;20025;-77
2022/01/03 03:29:47;;;;;;;0.40;0.40;;;;;;;8.18;80.82;101225.59;5030551;28;20388;-77
2022/01/03 03:32:12;;;;;;;0.60;0.60;;;;;;;8.17;80.84;101218.59;5022888;28;20018;-76
2022/01/03 03:34:37;;;;;;;0.53;0.53;;;;;;;8.20;80.76;101216.09;5024392;28;20211;-70
2022/01/03 03:37:03;;;;;;;0.50;0.50;;;;;;;8.19;81.12;101213.41;5023297;28;20022;-75
2022/01/03 03:39:30;;;;;;;0.50;0.50;;;;;;;8.17;81.15;101218.59;5022117;28;20163;-71
2022/01/03 03:41:55;;;;;;;0.90;0.90;;;;;;;8.13;81.41;101219.28;5021398;28;20381;-76
2022/01/03 03:44:20;;;;;;;0.50;0.50;;;;;;;8.11;81.63;101220.94;5035633;28;20032;-81
2022/01/03 03:46:45;;;;;;;0.60;0.60;;;;;;;8.09;81.79;101213.03;5039159;28;20038;-74
2022/01/03 03:49:11;;;;;;;0.60;0.60;;;;;;;8.12;81.79;101222.72;5040102;28;20040;-72
2022/01/03 03:51:38;;;;;;;0.50;0.50;;;;;;;8.12;81.75;101209.66;5039544;28;20037;-78
2022/01/03 03:54:04;;;;;;;0.60;0.60;;;;;;;8.13;81.51;101219.28;5039796;28;20048;-75
2022/01/03 03:56:29;;;;;;;0.30;0.30;;;;;;;8.15;81.60;101214.13;5038252;28;20288;-76
2022/01/03 03:58:54;;;;;;;0.60;0.60;;;;;;;8.15;81.22;101204.56;5020162;28;20101;-76
2022/01/03 04:01:20;;;;;;;0.50;0.50;;;;;;;8.13;81.51;101201.00;5033019;28;20307;-77
2022/01/03 04:03:45;;;;;;;0.50;0.50;;;;;;;8.17;81.07;101204.66;5039318;28;20154;-74
2022/01/03 04:06:11;;;;;;;0.50;0.50;;;;;;;8.17;80.98;101202.03;5039490;28;20025;-75
2022/01/03 04:08:36;;;;;;;0.47;0.47;;;;;;;8.22;80.68;101198.78;5040117;28;20025;-76
2022/01/03 04:11:02;;;;;;;0.50;0.50;;;;;;;8.24;81.04;101191.03;5039087;28;20044;-77
2022/01/03 04:13:27;;;;;;;0.60;0.60;;;;;;;8.26;80.93;101192.00;5039778;28;20026;-84
2022/01/03 04:15:52;;;;;;;0.40;0.40;;;;;;;8.25;80.94;101185.91;5038027;28;20033;-74
2022/01/03 04:18:18;;;;;;;0.53;0.53;;;;;;;8.21;81.27;101197.03;5038697;28;20097;-74
2022/01/03 04:20:43;;;;;;;0.60;0.60;;;;;;;8.19;81.52;101192.56;5040980;28;20422;-75
2022/01/03 04:23:08;;;;;;;0.47;0.47;;;;;;;8.21;81.52;101188.28;5040415;28;20035;-70
2022/01/03 04:25:34;;;;;;;0.43;0.43;;;;;;;8.20;81.49;101197.84;5041299;28;20029;-75
2022/01/03 04:27:59;;;;;;;0.57;0.57;;;;;;;8.21;82.04;101189.19;5039625;28;20064;-76
2022/01/03 04:30:24;;;;;;;0.40;0.40;;;;;;;8.25;82.08;101187.59;5022571;28;20041;-77
2022/01/03 04:32:50;;;;;;;0.53;0.53;;;;;;;8.21;82.10;101188.28;5020984;28;20433;-74
2022/01/03 04:35:15;;;;;;;0.70;0.70;;;;;;;8.20;82.12;101194.34;5022679;28;20032;-77
2022/01/03 04:37:41;;;;;;;0.50;0.50;;;;;;;8.18;82.57;101182.94;5019720;28;20022;-75
2022/01/03 04:40:07;;;;;;;0.60;0.60;;;;;;;8.15;82.51;101183.69;5021196;28;20070;-73
2022/01/03 04:42:32;;;;;;;0.57;0.57;;;;;;;8.18;82.66;101169.91;5036940;28;20396;-74
2022/01/03 04:44:58;;;;;;;0.50;0.50;;;;;;;8.17;82.85;101169.03;5037943;28;20025;-75
2022/01/03 04:47:23;;;;;;;0.40;0.40;;;;;;;8.16;82.60;101184.59;5033542;28;20022;-76
2022/01/03 04:49:48;;;;;;;0.50;0.50;;;;;;;8.18;82.70;101178.63;5018464;28;20097;-75
2022/01/03 04:52:14;;;;;;;0.40;0.40;;;;;;;8.23;82.36;101184.06;5018966;28;20026;-72
2022/01/03 04:54:39;;;;;;;0.60;0.60;;;;;;;8.21;82.55;101183.97;5017587;28;20034;-74
2022/01/03 04:57:05;;;;;;;0.63;0.63;;;;;;;8.23;82.51;101190.13;5018248;28;20026;-75
2022/01/03 04:59:30;;;;;;;2.20;1.63;;;;;;;8.24;82.04;101172.78;5018125;28;20125;-77
2022/01/03 05:01:56;;;;;;;0.40;0.40;;;;;;;8.18;82.46;101178.63;5018072;28;20028;-76
2022/01/03 05:04:21;;;;;;;0.50;0.50;;;;;;;8.16;82.67;101175.03;5025867;28;20391;-71
2022/01/03 05:06:46;;;;;;;0.40;0.40;;;;;;;8.19;82.57;101166.47;5037533;28;20049;-76
2022/01/03 05:09:12;;;;;;;0.50;0.50;;;;;;;8.18;82.57;101178.63;5038269;28;20025;-75
2022/01/03 05:11:37;;;;;;;0.50;0.50;;;;;;;8.16;82.84;101167.22;5037018;28;20108;-76
2022/01/03 05:14:02;;;;;;;0.50;0.50;;;;;;;8.24;82.45;101168.44;5037455;28;20068;-75
2022/01/03 05:16:28;;;;;;;0.57;0.57;;;;;;;8.28;82.30;101158.16;5037343;28;20026;-77
2022/01/03 05:18:53;;;;;;;0.50;0.50;;;;;;;8.26;82.14;101171.13;5037457;28;20064;-78
2022/01/03 05:21:20;;;;;;;0.50;0.50;;;;;;;8.29;82.57;101172.97;5037658;28;20040;-76
2022/01/03 05:23:46;;;;;;;0.50;0.50;;;;;;;8.30;82.33;101162.63;5036318;28;20037;-75
2022/01/03 05:26:12;;;;;;;0.60;0.60;;;;;;;8.35;82.21;101165.41;5036720;28;20376;-76
2022/01/03 05:28:38;;;;;;;0.50;0.50;;;;;;;8.40;81.97;101174.31;5037781;28;20021;-78
2022/01/03 05:31:03;;;;;;;0.30;0.30;;;;;;;8.43;81.77;101169.25;5037352;28;20040;-74
2022/01/03 05:33:29;;;;;;;0.40;0.40;;;;;;;8.40;82.05;101174.31;5037253;28;20403;-78
2022/01/03 05:35:54;;;;;;;0.30;0.30;;;;;;;8.44;81.83;101165.81;5036037;28;20047;-76
2022/01/03 05:38:19;;;;;;;0.60;0.60;;;;;;;8.43;81.86;101169.25;5036900;28;20104;-76
2022/01/03 05:40:45;;;;;;;0.40;0.40;;;;;;;8.43;81.86;101166.63;5036070;28;20261;-75
2022/01/03 05:43:10;;;;;;;0.50;0.50;;;;;;;8.47;82.13;101168.53;5036404;28;20116;-73
2022/01/03 05:45:36;;;;;;;0.50;0.50;;;;;;;8.50;82.13;101162.56;5036761;28;20052;-72
2022/01/03 05:48:01;;;;;;;0.40;0.40;;;;;;;8.52;82.04;101158.31;5036722;28;20025;-73
2022/01/03 05:50:27;;;;;;;0.50;0.50;;;;;;;8.55;81.59;101157.56;5037323;28;20052;-75
2022/01/03 05:52:52;;;;;;;0.43;0.43;;;;;;;8.52;81.94;101160.94;5017827;28;20025;-73
2022/01/03 05:55:20;;;;;;;0.50;0.50;;;;;;;8.46;82.36;101150.22;5016886;28;20415;-72
2022/01/03 05:57:45;;;;;;;0.60;0.60;;;;;;;8.42;82.15;101161.34;5016671;28;20080;-73
2022/01/03 06:00:14;;;;;;;0.50;0.50;;;;;;;8.41;82.04;101151.75;5016964;28;20021;-73
2022/01/03 06:02:42;;;;;;;0.60;0.60;;;;;;;8.36;82.32;101144.59;5016043;28;20055;-70
2022/01/03 06:05:11;;;;;;;0.50;0.50;;;;;;;8.31;82.47;101161.78;5018904;28;20430;-67
2022/01/03 06:07:36;;;;;;;0.60;0.60;;;;;;;8.30;82.60;101154.78;5025919;28;20030;-71
2022/01/03 06:10:03;;;;;;;0.50;0.50;;;;;;;8.34;82.35;101153.22;5026358;28;20038;-76
2022/01/03 06:12:28;;;;;;;0.50;0.50;;;;;;;8.33;82.38;101154.91;5024945;28;20021;-73
2022/01/03 06:14:55;;;;;;;0.50;0.50;;;;;;;8.31;82.29;101153.97;5023024;28;20068;-78
2022/01/03 06:17:20;;;;;;;0.50;0.50;;;;;;;8.36;82.09;101155.03;5026650;28;20033;-71
2022/01/03 06:19:47;;;;;;;0.50;0.50;;;;;;;8.32;82.15;101158.34;5023519;28;20046;-73
2022/01/03 06:22:13;;;;;;;0.50;0.50;;;;;;;8.33;82.19;101143.56;5030108;28;20021;-73
2022/01/03 06:24:39;;;;;;;0.50;0.50;;;;;;;8.37;81.94;101137.66;5030697;28;20037;-74
2022/01/03 06:27:05;;;;;;;0.40;0.40;;;;;;;8.34;82.05;101140.16;5017256;28;20038;-77
2022/01/03 06:29:31;;;;;;;0.40;0.40;;;;;;;8.39;82.06;101136.00;5029275;28;20025;-73
2022/01/03 06:31:57;;;;;;;0.40;0.40;;;;;;;8.44;81.89;101133.59;5036111;28;20037;-76
2022/01/03 06:34:23;;;;;;;0.50;0.50;;;;;;;8.45;82.00;101125.81;5036199;28;20288;-76
2022/01/03 06:36:48;;;;;;;0.50;0.50;;;;;;;8.48;82.06;101136.38;5036674;28;20171;-75
2022/01/03 06:39:14;;;;;;;0.47;0.47;;;;;;;8.44;82.18;101131.88;5037138;28;20021;-78
2022/01/03 06:41:40;;;;;;;1.13;0.70;;;;;;;8.46;82.06;101131.94;5024066;28;20032;-74
2022/01/03 06:44:06;;;;;;;0.50;0.50;;;;;;;8.46;82.02;101130.22;5016607;28;20030;-72
2022/01/03 06:46:32;;;;;;;0.50;0.50;;;;;;;8.47;81.76;101138.94;5016793;28;20101;-76
2022/01/03 06:49:00;;;;;;;0.50;0.50;;;;;;;8.47;81.88;101142.44;5016334;28;20113;-76
2022/01/03 06:51:25;;;;;;;0.47;0.47;;;;;;;8.43;82.06;101137.94;5016885;28;20030;-77
2022/01/03 06:53:51;;;;;;;0.50;0.50;;;;;;;8.41;82.21;101134.34;5016404;28;20029;-74
2022/01/03 06:56:16;;;;;;;0.50;0.50;;;;;;;8.38;81.90;101132.53;5016608;28;20148;-73
2022/01/03 06:58:42;;;;;;;0.60;0.60;;;;;;;8.37;82.24;101129.84;5017472;28;20030;-71
2022/01/03 07:01:08;;;;;;;0.50;0.50;;;;;;;8.35;82.10;101134.09;5017012;28;20333;-73
2022/01/03 07:03:34;;;;;;;0.43;0.43;;;;;;;8.37;81.90;101135.97;5017241;28;20484;-74
2022/01/03 07:05:59;;;;;;;0.50;0.50;;;;;;;8.31;81.99;101146.13;5028212;28;20072;-73
2022/01/03 07:08:24;;;;;;;0.40;0.40;;;;;;;8.25;82.15;101133.72;5036512;28;20030;-73
2022/01/03 07:10:51;;;;;;;0.50;0.50;;;;;;;8.24;82.16;101125.81;5036794;28;20076;-73
2022/01/03 07:13:16;;;;;;;0.40;0.40;;;;;;;8.20;82.23;101134.31;5038256;28;20316;-75
2022/01/03 07:21:12;;;;;;;0.43;0.43;;;;;;;8.18;81.98;101134.28;5040500;28;20084;-73
2022/01/03 07:23:39;;;;;;;0.50;0.50;;;;;;;8.21;81.52;101133.50;5038939;28;20037;-71
2022/01/03 07:26:04;;;;;;;0.40;0.40;;;;;;;8.22;81.66;101130.97;5039778;28;20029;-76
2022/01/03 07:28:29;;;;;;;0.53;0.53;;;;;;;8.21;82.15;101138.72;5039498;28;20444;-78
2022/01/03 07:30:55;;;;;;;0.50;0.50;;;;;;;8.22;81.59;101140.53;5040094;28;20400;-78
2022/01/03 07:33:20;;;;;;;0.47;0.47;;;;;;;8.21;81.64;101134.41;5039501;28;20018;-74
2022/01/03 07:35:46;;;;;;;0.37;0.37;;;;;;;8.20;81.85;101148.28;5039936;28;20061;-75
2022/01/03 07:38:11;;;;;;;0.50;0.50;;;;;;;8.17;81.77;101124.69;5023127;28;20107;-73
2022/01/03 07:40:37;;;;;;;0.50;0.50;;;;;;;8.13;81.78;101125.38;5039714;28;20118;-78
2022/01/03 07:43:03;;;;;;;0.43;0.43;;;;;;;8.18;81.83;101139.50;5039845;28;20025;-75
2022/01/03 07:45:29;;;;;;;0.60;0.60;;;;;;;8.19;81.74;101137.75;5040473;28;20033;-77
2022/01/03 07:47:55;;;;;;;0.60;0.60;;;;;;;8.20;81.57;101140.44;5040234;28;20025;-79
2022/01/03 07:50:20;;;;;;;0.40;0.40;;;;;;;8.24;81.46;101141.47;5027487;28;20029;-74
2022/01/03 07:52:46;;;;;;;0.50;0.50;;;;;;;8.24;81.46;101150.19;5059452;28;20041;-77
2022/01/03 07:55:12;;;;;;;0.60;0.60;;;;;;;8.23;81.56;101148.41;5051990;28;20100;-77
2022/01/03 07:57:38;;;;;;;0.60;0.60;;;;;;;8.20;81.28;101142.16;5039653;28;20025;-79
2022/01/03 08:00:06;;;;;;;0.43;0.43;;;;;;;8.22;81.24;101153.56;5040230;28;20045;-76
2022/01/03 08:02:31;;;;;;;0.40;0.40;;;;;;;8.19;81.52;101150.81;5038158;28;20026;-72
2022/01/03 08:04:56;;;;;;;0.60;0.60;;;;;;;8.16;81.39;101148.09;5037591;28;20133;-72
2022/01/03 08:07:22;;;;;;;0.50;0.50;;;;;;;8.14;81.10;101139.31;5039682;28;20034;-77
2022/01/03 08:09:48;;;;;;;0.50;0.50;;;;;;;8.15;81.09;101154.13;5022226;28;20044;-77
2022/01/03 08:12:13;;;;;;;1.10;1.10;;;;;;;8.16;81.24;101150.69;5039530;28;20026;-79
2022/01/03 08:14:40;;;;;;;0.50;0.50;;;;;;;8.14;81.29;101148.00;5038719;28;20080;-79
2022/01/03 08:17:05;;;;;;;0.57;0.57;;;;;;;8.13;81.62;101146.22;5039225;28;20065;-72
2022/01/03 08:19:31;;;;;;;0.40;0.40;;;;;;;8.15;81.58;101143.69;5039332;28;20037;-75
2022/01/03 08:21:57;;;;;;;0.93;0.60;;;;;;;8.18;81.13;101136.91;5039751;28;20321;-75
2022/01/03 08:24:22;;;;;;;0.30;0.30;;;;;;;8.16;81.37;101145.47;5053631;28;20041;-75
2022/01/03 08:26:49;;;;;;;0.50;0.50;;;;;;;8.17;81.56;101158.59;5023188;28;20030;-72
2022/01/03 08:29:14;;;;;;;0.50;0.50;;;;;;;8.19;81.29;101153.41;5024999;28;20455;-75
2022/01/03 08:31:40;;;;;;;0.50;0.50;;;;;;;8.16;81.35;101158.53;5033983;28;20033;-76
2022/01/03 08:34:05;;;;;;;0.50;0.50;;;;;;;8.11;81.63;101159.19;5036486;28;20352;-75
2022/01/03 08:36:32;;;;;;;0.40;0.40;;;;;;;8.13;81.59;101167.09;5018248;28;20384;-76
2022/01/03 08:38:57;;;;;;;0.50;0.50;;;;;;;8.14;81.80;101168.88;5018083;28;20042;-75
2022/01/03 08:41:23;;;;;;;0.50;0.50;;;;;;;8.17;81.84;101163.81;5019116;28;20040;-74
2022/01/03 08:43:48;;;;;;;0.60;0.60;;;;;;;8.16;81.97;101166.34;5020149;28;20030;-74
2022/01/03 08:46:14;;;;;;;0.50;0.50;;;;;;;8.14;81.77;101176.69;5022329;28;20061;-72
2022/01/03 08:48:39;;;;;;;0.50;0.50;;;;;;;8.16;82.06;101179.38;5038807;28;20029;-76
2022/01/03 08:51:04;;;;;;;0.50;0.50;;;;;;;8.22;81.85;101167.50;5039338;28;20048;-76
2022/01/03 08:53:30;;;;;;;0.47;0.47;;;;;;;8.30;81.96;101166.94;5040613;28;20387;-71
2022/01/03 08:55:57;;;;;;;0.40;0.40;;;;;;;8.30;81.28;101172.16;5043639;28;20038;-78
2022/01/03 08:58:25;;;;;;;0.50;0.50;;;;;;;8.26;81.26;101165.91;5024527;28;20033;-77
2022/01/03 09:00:51;;;;;;;0.50;0.50;;;;;;;8.25;80.90;101162.44;5040473;28;20025;-74
2022/01/03 09:03:17;;;;;;;0.50;0.50;;;;;;;8.32;80.78;101153.13;5039479;28;20025;-76
2022/01/03 09:05:43;;;;;;;0.50;0.50;;;;;;;8.34;80.55;101159.31;5029516;28;20036;-76
2022/01/03 09:08:09;;;;;;;0.47;0.47;;;;;;;8.27;81.02;101151.16;5019379;28;20121;-72
2022/01/03 09:10:34;;;;;;;0.53;0.53;;;;;;;8.27;80.95;101156.38;5019117;28;20030;-74
2022/01/03 09:13:00;;;;;;;0.33;0.33;;;;;;;8.24;81.21;101158.00;5020495;28;20257;-75
2022/01/03 09:15:26;;;;;;;0.43;0.43;;;;;;;8.26;80.96;101150.25;5020538;28;20018;-73
2022/01/03 09:17:51;;;;;;;0.40;0.40;;;;;;;8.26;80.80;101145.03;5003709;28;20021;-75
2022/01/03 09:20:21;;;;;;;0.40;0.40;;;;;;;8.31;80.56;101143.53;5018633;28;20266;-74
2022/01/03 09:22:49;;;;;;;0.53;0.53;;;;;;;8.26;80.72;101137.22;5026019;28;20022;-74
2022/01/03 09:30:35;;;;;;;0.50;0.50;;;;;;;8.32;80.75;101126.13;5038255;28;20121;-79
2022/01/03 09:33:01;;;;;;;0.40;0.40;;;;;;;8.32;80.96;101134.88;5037398;28;20017;-75
2022/01/03 09:35:27;;;;;;;0.50;0.50;;;;;;;8.33;80.85;101133.13;5036430;28;20028;-75
2022/01/03 09:37:52;;;;;;;0.40;0.40;;;;;;;8.36;80.79;101143.72;5021092;28;20407;-75
2022/01/03 09:40:18;;;;;;;0.50;0.50;;;;;;;8.34;81.08;101138.44;5031863;28;20029;-77
2022/01/03 09:42:48;;;;;;;0.50;0.50;;;;;;;8.37;81.07;101137.66;5017956;28;20025;-75
2022/01/03 09:45:15;;;;;;;0.50;0.50;;;;;;;8.43;81.28;101142.25;5038170;28;20272;-74
2022/01/03 09:47:43;;;;;;;0.50;0.50;;;;;;;8.47;80.86;101124.16;5037384;28;20033;-74
2022/01/03 09:50:11;;;;;;;0.60;0.60;;;;;;;8.59;80.79;101128.16;5037834;28;20033;-76
2022/01/03 09:52:37;;;;;;;0.50;0.50;;;;;;;8.63;81.16;101133.56;5037697;28;20017;-79
2022/01/03 09:55:03;;;;;;;0.40;0.40;;;;;;;8.69;80.77;101135.53;5037847;28;20083;-79
2022/01/03 09:57:30;;;;;;;0.60;0.60;;;;;;;8.79;80.66;101140.28;5031105;28;20036;-77
2022/01/03 09:59:56;;;;;;;0.40;0.40;;;;;;;8.90;80.68;101140.72;5016637;28;20101;-74
2022/01/03 10:02:22;;;;;;;0.60;0.60;;;;;;;8.98;80.46;101137.53;5016530;28;20037;-75
2022/01/03 10:04:48;;;;;;;0.40;0.40;;;;;;;9.04;80.31;101140.41;5018789;28;20296;-74
2022/01/03 10:07:14;;;;;;;0.60;0.60;;;;;;;9.05;79.63;101139.56;5037535;28;20028;-75
2022/01/03 10:09:41;;;;;;;0.50;0.50;;;;;;;9.06;80.00;101137.00;5037315;28;20021;-75
2022/01/03 10:12:09;;;;;;;0.43;0.43;;;;;;;9.05;79.93;101142.16;5035823;28;20475;-74
2022/01/03 10:14:35;;;;;;;0.60;0.60;;;;;;;9.18;79.48;101140.94;5036766;28;20028;-72
2022/01/03 10:17:00;;;;;;;0.60;0.60;;;;;;;9.28;79.28;101135.22;5035519;28;20034;-76
2022/01/03 10:19:25;;;;;;;0.60;0.60;;;;;;;9.51;78.94;101134.31;5037315;28;20029;-75
2022/01/03 10:21:51;;;;;;;0.50;0.50;;;;;;;9.46;78.14;101140.25;5036169;28;20057;-75
2022/01/03 10:24:19;;;;;;;0.40;0.40;;;;;;;9.39;78.51;101117.34;5037096;28;20064;-76
2022/01/03 10:26:54;;;;;;;0.60;0.60;;;;;;;9.47;78.19;101112.41;5022172;28;20076;-77
2022/01/03 10:29:25;;;;;;;0.30;0.30;;;;;;;9.52;78.00;101115.19;5016885;28;20121;-74
2022/01/03 10:31:55;;;;;;;0.40;0.40;;;;;;;9.55;77.94;101124.03;5016340;28;20029;-73
2022/01/03 10:34:23;;;;;;;0.43;0.43;;;;;;;9.63;77.76;101121.69;5017286;28;20084;-75
2022/01/03 10:36:49;;;;;;;0.50;0.50;;;;;;;9.66;77.11;101103.53;5017409;28;20109;-76
2022/01/03 10:39:25;;;;;;;0.40;0.40;;;;;;;9.68;77.16;101104.47;5019032;28;20448;-78
2022/01/03 10:42:21;;;;;;;0.50;0.50;;;;;;;9.69;77.78;101108.84;5036578;28;20419;-76
2022/01/03 10:44:47;;;;;;;0.60;0.60;;;;;;;9.72;77.48;101102.84;5031930;28;20091;-77
2022/01/03 10:47:15;;;;;;;0.40;0.40;;;;;;;9.72;77.33;101097.63;5038667;28;20285;-76
2022/01/03 10:49:42;;;;;;;0.50;0.50;;;;;;;9.72;77.52;101102.84;5040572;28;20269;-76
2022/01/03 10:52:17;;;;;;;0.60;0.60;;;;;;;9.65;77.47;101114.78;5040516;28;20373;-75
2022/01/03 10:54:44;;;;;;;0.57;0.57;;;;;;;9.64;77.46;101105.16;5027237;28;20305;-70
2022/01/03 10:57:09;;;;;;;0.50;0.50;;;;;;;9.62;77.86;101099.00;5021079;28;20419;-79
2022/01/03 10:59:36;;;;;;;0.50;0.50;;;;;;;9.64;77.73;101094.72;5020848;28;20030;-74
2022/01/03 11:02:02;;;;;;;0.50;0.50;;;;;;;9.64;78.17;101093.84;5020109;28;20026;-72
2022/01/03 11:04:50;;;;;;;0.47;0.47;;;;;;;9.62;78.26;101089.44;5020432;28;20029;-71
2022/01/03 11:13:10;;;;;;;0.60;0.60;;;;;;;9.66;78.66;101081.69;5035806;28;20044;-74
2022/01/03 11:15:41;;;;;;;0.57;0.57;;;;;;;9.70;78.39;101075.72;5039800;28;20025;-72
2022/01/03 11:18:22;;;;;;;0.50;0.50;;;;;;;9.68;78.27;101069.56;5039566;28;20270;-74
2022/01/03 11:21:00;;;;;;;0.50;0.50;;;;;;;9.70;78.32;101062.66;5040254;28;20026;-71
2022/01/03 11:23:25;;;;;;;0.50;0.50;;;;;;;9.69;78.48;101059.16;5039060;28;20039;-76
2022/01/03 11:25:53;;;;;;;0.50;0.50;;;;;;;9.71;78.26;101049.63;5020636;28;20367;-72
2022/01/03 11:28:21;;;;;;;0.40;0.40;;;;;;;9.79;78.02;101057.78;5020842;28;20045;-71
2022/01/03 11:30:48;;;;;;;0.50;0.50;;;;;;;9.82;77.59;101060.47;5020207;28;20380;-73
2022/01/03 11:33:14;;;;;;;0.53;0.53;;;;;;;9.84;77.45;101060.53;5019664;28;20121;-74
2022/01/03 11:35:46;;;;;;;0.50;0.50;;;;;;;9.85;76.92;101054.47;5026948;28;20083;-74
2022/01/03 11:38:11;;;;;;;0.50;0.50;;;;;;;9.85;77.26;101036.16;5040431;28;20400;-76
2022/01/03 11:40:37;;;;;;;0.50;0.50;;;;;;;9.93;76.51;101036.41;5039448;28;20060;-75
2022/01/03 11:43:04;;;;;;;0.50;0.50;;;;;;;9.96;76.36;101029.56;5033267;28;20099;-78
2022/01/03 11:45:31;;;;;;;0.50;0.50;;;;;;;10.00;76.20;101041.94;5033051;28;20067;-74
2022/01/03 11:47:57;;;;;;;0.50;0.50;;;;;;;9.97;76.73;101022.63;5022737;28;20292;-77
2022/01/03 11:50:23;;;;;;;0.40;0.40;;;;;;;9.87;76.43;101032.78;5022986;28;20029;-77
2022/01/03 11:52:49;;;;;;;0.50;0.50;;;;;;;9.86;76.56;101017.03;5038828;28;20043;-78